Aviation Digital Data Service (ADDS)

Output produced by METARs form (0023 UTC 17 July 2019)
found at http://www.aviationweather.gov/metar/data/
 
METAR text: RPLC 170000Z 14002KT 4000 -RA SCT020 OVC100 25/24 Q1002 RMK A2959
Conditions at: RPLC (ANGELES/PAMPANGA, PH) observed 0000 UTC 17 July 2019
Temperature: 25.0°C (77°F)
Dewpoint: 24.0°C (75°F) [RH = 94%]
Pressure (altimeter): 29.59 inches Hg (1002.0 mb)
Winds: from the SE (140 degrees) at 2 MPH (2 knots; 1.0 m/s)
Visibility: 2.49 miles (4.01 km)
Ceiling: 10000 feet AGL
Clouds: scattered clouds at 2000 feet AGL
overcast cloud deck at 10000 feet AGL
Weather: -RA  (light rain)

METAR text: RPLC 162300Z 35002KT 4000 -RA SCT020 OVC100 24/24 Q1002 RMK A2959
Conditions at: RPLC (ANGELES/PAMPANGA, PH) observed 2300 UTC 16 July 2019
Temperature: 24.0°C (75°F)
Dewpoint: 24.0°C (75°F) [RH = 100%]
Pressure (altimeter): 29.59 inches Hg (1002.0 mb)
Winds: from the N (350 degrees) at 2 MPH (2 knots; 1.0 m/s)
Visibility: 2.49 miles (4.01 km)
Ceiling: 10000 feet AGL
Clouds: scattered clouds at 2000 feet AGL
overcast cloud deck at 10000 feet AGL
Weather: -RA  (light rain)

METAR text: RPLC 162200Z 35002KT 4000 -RA SCT020 OVC100 24/24 Q1002 RMK A2959
Conditions at: RPLC (ANGELES/PAMPANGA, PH) observed 2200 UTC 16 July 2019
Temperature: 24.0°C (75°F)
Dewpoint: 24.0°C (75°F) [RH = 100%]
Pressure (altimeter): 29.59 inches Hg (1002.0 mb)
Winds: from the N (350 degrees) at 2 MPH (2 knots; 1.0 m/s)
Visibility: 2.49 miles (4.01 km)
Ceiling: 10000 feet AGL
Clouds: scattered clouds at 2000 feet AGL
overcast cloud deck at 10000 feet AGL
Weather: -RA  (light rain)

METAR text: RPLC 162100Z 36004KT 4000 -RA SCT020 OVC100 24/23 Q1002 RMK A2959
Conditions at: RPLC (ANGELES/PAMPANGA, PH) observed 2100 UTC 16 July 2019
Temperature: 24.0°C (75°F)
Dewpoint: 23.0°C (73°F) [RH = 94%]
Pressure (altimeter): 29.59 inches Hg (1002.0 mb)
Winds: from the N (360 degrees) at 5 MPH (4 knots; 2.1 m/s)
Visibility: 2.49 miles (4.01 km)
Ceiling: 10000 feet AGL
Clouds: scattered clouds at 2000 feet AGL
overcast cloud deck at 10000 feet AGL
Weather: -RA  (light rain)

METAR text: RPLC 162000Z 22002KT 4000 -RA SCT020 OVC100 24/24 Q1001 RMK A2956
Conditions at: RPLC (ANGELES/PAMPANGA, PH) observed 2000 UTC 16 July 2019
Temperature: 24.0°C (75°F)
Dewpoint: 24.0°C (75°F) [RH = 100%]
Pressure (altimeter): 29.56 inches Hg (1001.0 mb)
Winds: from the SW (220 degrees) at 2 MPH (2 knots; 1.0 m/s)
Visibility: 2.49 miles (4.01 km)
Ceiling: 10000 feet AGL
Clouds: scattered clouds at 2000 feet AGL
overcast cloud deck at 10000 feet AGL
Weather: -RA  (light rain)

METAR text: RPLC 161900Z 15002KT 4000 -RA SCT020 OVC100 24/23 Q1002 RMK A2959
Conditions at: RPLC (ANGELES/PAMPANGA, PH) observed 1900 UTC 16 July 2019
Temperature: 24.0°C (75°F)
Dewpoint: 23.0°C (73°F) [RH = 94%]
Pressure (altimeter): 29.59 inches Hg (1002.0 mb)
Winds: from the SSE (150 degrees) at 2 MPH (2 knots; 1.0 m/s)
Visibility: 2.49 miles (4.01 km)
Ceiling: 10000 feet AGL
Clouds: scattered clouds at 2000 feet AGL
overcast cloud deck at 10000 feet AGL
Weather: -RA  (light rain)

METAR text: RPLC 161800Z 11002KT 4000 -RA SCT020 OVC100 24/24 Q1002 RMK A2959
Conditions at: RPLC (ANGELES/PAMPANGA, PH) observed 1800 UTC 16 July 2019
Temperature: 24.0°C (75°F)
Dewpoint: 24.0°C (75°F) [RH = 100%]
Pressure (altimeter): 29.59 inches Hg (1002.0 mb)
Winds: from the ESE (110 degrees) at 2 MPH (2 knots; 1.0 m/s)
Visibility: 2.49 miles (4.01 km)
Ceiling: 10000 feet AGL
Clouds: scattered clouds at 2000 feet AGL
overcast cloud deck at 10000 feet AGL
Weather: -RA  (light rain)

METAR text: RPLC 161700Z 18004KT 4000 -RA SCT020 OVC100 25/24 Q1002 RMK A2959
Conditions at: RPLC (ANGELES/PAMPANGA, PH) observed 1700 UTC 16 July 2019
Temperature: 25.0°C (77°F)
Dewpoint: 24.0°C (75°F) [RH = 94%]
Pressure (altimeter): 29.59 inches Hg (1002.0 mb)
Winds: from the S (180 degrees) at 5 MPH (4 knots; 2.1 m/s)
Visibility: 2.49 miles (4.01 km)
Ceiling: 10000 feet AGL
Clouds: scattered clouds at 2000 feet AGL
overcast cloud deck at 10000 feet AGL
Weather: -RA  (light rain)

METAR text: RPLC 161600Z 09004KT 4000 -RA SCT020 OVC100 25/24 Q1003 RMK A2961
Conditions at: RPLC (ANGELES/PAMPANGA, PH) observed 1600 UTC 16 July 2019
Temperature: 25.0°C (77°F)
Dewpoint: 24.0°C (75°F) [RH = 94%]
Pressure (altimeter): 29.62 inches Hg (1003.0 mb)
Winds: from the E (90 degrees) at 5 MPH (4 knots; 2.1 m/s)
Visibility: 2.49 miles (4.01 km)
Ceiling: 10000 feet AGL
Clouds: scattered clouds at 2000 feet AGL
overcast cloud deck at 10000 feet AGL
Weather: -RA  (light rain)

METAR text: RPLC 161500Z 15004KT 5000 -RA SCT020 OVC100 25/24 Q1003 RMK A2962
Conditions at: RPLC (ANGELES/PAMPANGA, PH) observed 1500 UTC 16 July 2019
Temperature: 25.0°C (77°F)
Dewpoint: 24.0°C (75°F) [RH = 94%]
Pressure (altimeter): 29.62 inches Hg (1003.0 mb)
Winds: from the SSE (150 degrees) at 5 MPH (4 knots; 2.1 m/s)
Visibility: 3 miles ( 5 km)
Ceiling: 10000 feet AGL
Clouds: scattered clouds at 2000 feet AGL
overcast cloud deck at 10000 feet AGL
Weather: -RA  (light rain)

METAR text: RPLC 161400Z 21002KT 5000 -RA SCT020 OVC100 25/23 Q1003 RMK A2962
Conditions at: RPLC (ANGELES/PAMPANGA, PH) observed 1400 UTC 16 July 2019
Temperature: 25.0°C (77°F)
Dewpoint: 23.0°C (73°F) [RH = 89%]
Pressure (altimeter): 29.62 inches Hg (1003.0 mb)
Winds: from the SSW (210 degrees) at 2 MPH (2 knots; 1.0 m/s)
Visibility: 3 miles ( 5 km)
Ceiling: 10000 feet AGL
Clouds: scattered clouds at 2000 feet AGL
overcast cloud deck at 10000 feet AGL
Weather: -RA  (light rain)

METAR text: RPLC 161300Z 22002KT 5000 -RA SCT020 OVC100 26/24 Q1003 RMK A2963
Conditions at: RPLC (ANGELES/PAMPANGA, PH) observed 1300 UTC 16 July 2019
Temperature: 26.0°C (79°F)
Dewpoint: 24.0°C (75°F) [RH = 89%]
Pressure (altimeter): 29.62 inches Hg (1003.0 mb)
Winds: from the SW (220 degrees) at 2 MPH (2 knots; 1.0 m/s)
Visibility: 3 miles ( 5 km)
Ceiling: 10000 feet AGL
Clouds: scattered clouds at 2000 feet AGL
overcast cloud deck at 10000 feet AGL
Weather: -RA  (light rain)

METAR text: RPLC 161200Z 34006KT 7000 -RA SCT020 OVC100 27/25 Q1003 RMK A2962
Conditions at: RPLC (ANGELES/PAMPANGA, PH) observed 1200 UTC 16 July 2019
Temperature: 27.0°C (81°F)
Dewpoint: 25.0°C (77°F) [RH = 89%]
Pressure (altimeter): 29.62 inches Hg (1003.0 mb)
Winds: from the NNW (340 degrees) at 7 MPH (6 knots; 3.1 m/s)
Visibility: 4 miles ( 7 km)
Ceiling: 10000 feet AGL
Clouds: scattered clouds at 2000 feet AGL
overcast cloud deck at 10000 feet AGL
Weather: -RA  (light rain)

METAR text: RPLC 161100Z 14002KT 7000 -RA SCT020 OVC100 28/24 Q1003 RMK A2962
Conditions at: RPLC (ANGELES/PAMPANGA, PH) observed 1100 UTC 16 July 2019
Temperature: 28.0°C (82°F)
Dewpoint: 24.0°C (75°F) [RH = 79%]
Pressure (altimeter): 29.62 inches Hg (1003.0 mb)
Winds: from the SE (140 degrees) at 2 MPH (2 knots; 1.0 m/s)
Visibility: 4 miles ( 7 km)
Ceiling: 10000 feet AGL
Clouds: scattered clouds at 2000 feet AGL
overcast cloud deck at 10000 feet AGL
Weather: -RA  (light rain)

METAR text: RPLC 161000Z 20002KT 7000 -RA SCT020 OVC100 28/25 Q1003 RMK A2962
Conditions at: RPLC (ANGELES/PAMPANGA, PH) observed 1000 UTC 16 July 2019
Temperature: 28.0°C (82°F)
Dewpoint: 25.0°C (77°F) [RH = 84%]
Pressure (altimeter): 29.62 inches Hg (1003.0 mb)
Winds: from the SSW (200 degrees) at 2 MPH (2 knots; 1.0 m/s)
Visibility: 4 miles ( 7 km)
Ceiling: 10000 feet AGL
Clouds: scattered clouds at 2000 feet AGL
overcast cloud deck at 10000 feet AGL
Weather: -RA  (light rain)

METAR text: RPLC 160900Z 09002KT 7000 SCT020 OVC100 29/25 Q1003 RERA RMK A2962
Conditions at: RPLC (ANGELES/PAMPANGA, PH) observed 0900 UTC 16 July 2019
Temperature: 29.0°C (84°F)
Dewpoint: 25.0°C (77°F) [RH = 79%]
Pressure (altimeter): 29.62 inches Hg (1003.0 mb)
Winds: from the E (90 degrees) at 2 MPH (2 knots; 1.0 m/s)
Visibility: 4 miles ( 7 km)
Ceiling: 10000 feet AGL
Clouds: scattered clouds at 2000 feet AGL
overcast cloud deck at 10000 feet AGL
Weather: no significant weather observed at this time

METAR text: RPLC 160800Z 02006KT 7000 -RA SCT020 OVC100 29/25 Q1003 RMK A2962
Conditions at: RPLC (ANGELES/PAMPANGA, PH) observed 0800 UTC 16 July 2019
Temperature: 29.0°C (84°F)
Dewpoint: 25.0°C (77°F) [RH = 79%]
Pressure (altimeter): 29.62 inches Hg (1003.0 mb)
Winds: from the NNE (20 degrees) at 7 MPH (6 knots; 3.1 m/s)
Visibility: 4 miles ( 7 km)
Ceiling: 10000 feet AGL
Clouds: scattered clouds at 2000 feet AGL
overcast cloud deck at 10000 feet AGL
Weather: -RA  (light rain)

METAR text: RPLC 160700Z 36004KT 7000 -RA SCT020 OVC100 29/25 Q1003 RMK A2962
Conditions at: RPLC (ANGELES/PAMPANGA, PH) observed 0700 UTC 16 July 2019
Temperature: 29.0°C (84°F)
Dewpoint: 25.0°C (77°F) [RH = 79%]
Pressure (altimeter): 29.62 inches Hg (1003.0 mb)
Winds: from the N (360 degrees) at 5 MPH (4 knots; 2.1 m/s)
Visibility: 4 miles ( 7 km)
Ceiling: 10000 feet AGL
Clouds: scattered clouds at 2000 feet AGL
overcast cloud deck at 10000 feet AGL
Weather: -RA  (light rain)

METAR text: RPLC 160600Z 25002KT 6000 -RA SCT020 OVC100 29/25 Q1003 RMK A2962
Conditions at: RPLC (ANGELES/PAMPANGA, PH) observed 0600 UTC 16 July 2019
Temperature: 29.0°C (84°F)
Dewpoint: 25.0°C (77°F) [RH = 79%]
Pressure (altimeter): 29.62 inches Hg (1003.0 mb)
Winds: from the WSW (250 degrees) at 2 MPH (2 knots; 1.0 m/s)
Visibility: 4 miles ( 6 km)
Ceiling: 10000 feet AGL
Clouds: scattered clouds at 2000 feet AGL
overcast cloud deck at 10000 feet AGL
Weather: -RA  (light rain)

METAR text: RPLC 160500Z 02004KT 4000 -RA SCT020 OVC100 29/25 Q1004 RMK A2965
Conditions at: RPLC (ANGELES/PAMPANGA, PH) observed 0500 UTC 16 July 2019
Temperature: 29.0°C (84°F)
Dewpoint: 25.0°C (77°F) [RH = 79%]
Pressure (altimeter): 29.65 inches Hg (1004.0 mb)
Winds: from the NNE (20 degrees) at 5 MPH (4 knots; 2.1 m/s)
Visibility: 2.49 miles (4.01 km)
Ceiling: 10000 feet AGL
Clouds: scattered clouds at 2000 feet AGL
overcast cloud deck at 10000 feet AGL
Weather: -RA  (light rain)

METAR text: RPLC 160400Z 01002KT 4000 -RA SCT020 OVC100 29/25 Q1005 NOSIG RMK A2968
Conditions at: RPLC (ANGELES/PAMPANGA, PH) observed 0400 UTC 16 July 2019
Temperature: 29.0°C (84°F)
Dewpoint: 25.0°C (77°F) [RH = 79%]
Pressure (altimeter): 29.68 inches Hg (1005.0 mb)
Winds: from the N (10 degrees) at 2 MPH (2 knots; 1.0 m/s)
Visibility: 2.49 miles (4.01 km)
Ceiling: 10000 feet AGL
Clouds: scattered clouds at 2000 feet AGL
overcast cloud deck at 10000 feet AGL
Weather: -RA  (light rain)

METAR text: RPLC 160300Z 14002KT 5000 HZ SCT020 OVC100 28/25 Q1005 NOSIG RMK A2968
Conditions at: RPLC (ANGELES/PAMPANGA, PH) observed 0300 UTC 16 July 2019
Temperature: 28.0°C (82°F)
Dewpoint: 25.0°C (77°F) [RH = 84%]
Pressure (altimeter): 29.68 inches Hg (1005.0 mb)
Winds: from the SE (140 degrees) at 2 MPH (2 knots; 1.0 m/s)
Visibility: 3 miles ( 5 km)
Ceiling: 10000 feet AGL
Clouds: scattered clouds at 2000 feet AGL
overcast cloud deck at 10000 feet AGL
Weather: HZ  (haze)

METAR text: RPLC 160200Z 36001KT 4000 HZ SCT020 OVC100 28/25 Q1006 NOSIG RMK A2971
Conditions at: RPLC (ANGELES/PAMPANGA, PH) observed 0200 UTC 16 July 2019
Temperature: 28.0°C (82°F)
Dewpoint: 25.0°C (77°F) [RH = 84%]
Pressure (altimeter): 29.70 inches Hg (1006.0 mb)
Winds: from the N (360 degrees) at 1 MPH (1 knots; 0.5 m/s)
Visibility: 2.49 miles (4.01 km)
Ceiling: 10000 feet AGL
Clouds: scattered clouds at 2000 feet AGL
overcast cloud deck at 10000 feet AGL
Weather: HZ  (haze)

METAR text: RPLC 160100Z 16004KT 4000 HZ SCT020 OVC100 27/25 Q1006 NOSIG RMK A2971
Conditions at: RPLC (ANGELES/PAMPANGA, PH) observed 0100 UTC 16 July 2019
Temperature: 27.0°C (81°F)
Dewpoint: 25.0°C (77°F) [RH = 89%]
Pressure (altimeter): 29.70 inches Hg (1006.0 mb)
Winds: from the SSE (160 degrees) at 5 MPH (4 knots; 2.1 m/s)
Visibility: 2.49 miles (4.01 km)
Ceiling: 10000 feet AGL
Clouds: scattered clouds at 2000 feet AGL
overcast cloud deck at 10000 feet AGL
Weather: HZ  (haze)

METAR text: RPLC 160000Z 14004KT 4000 HZ SCT020 OVC100 26/24 Q1006 RERA RMK A2971
Conditions at: RPLC (ANGELES/PAMPANGA, PH) observed 0000 UTC 16 July 2019
Temperature: 26.0°C (79°F)
Dewpoint: 24.0°C (75°F) [RH = 89%]
Pressure (altimeter): 29.70 inches Hg (1006.0 mb)
Winds: from the SE (140 degrees) at 5 MPH (4 knots; 2.1 m/s)
Visibility: 2.49 miles (4.01 km)
Ceiling: 10000 feet AGL
Clouds: scattered clouds at 2000 feet AGL
overcast cloud deck at 10000 feet AGL
Weather: HZ  (haze)

METAR text: RPLC 152300Z 14002KT 4000 -RA SCT020 OVC100 26/24 Q1006 NOSIG RMK A2971
Conditions at: RPLC (ANGELES/PAMPANGA, PH) observed 2300 UTC 15 July 2019
Temperature: 26.0°C (79°F)
Dewpoint: 24.0°C (75°F) [RH = 89%]
Pressure (altimeter): 29.70 inches Hg (1006.0 mb)
Winds: from the SE (140 degrees) at 2 MPH (2 knots; 1.0 m/s)
Visibility: 2.49 miles (4.01 km)
Ceiling: 10000 feet AGL
Clouds: scattered clouds at 2000 feet AGL
overcast cloud deck at 10000 feet AGL
Weather: -RA  (light rain)

METAR text: RPLC 152200Z 16002KT 4000 HZ SCT020 OVC100 25/24 Q1006 NOSIG RMK A2971
Conditions at: RPLC (ANGELES/PAMPANGA, PH) observed 2200 UTC 15 July 2019
Temperature: 25.0°C (77°F)
Dewpoint: 24.0°C (75°F) [RH = 94%]
Pressure (altimeter): 29.70 inches Hg (1006.0 mb)
Winds: from the SSE (160 degrees) at 2 MPH (2 knots; 1.0 m/s)
Visibility: 2.49 miles (4.01 km)
Ceiling: 10000 feet AGL
Clouds: scattered clouds at 2000 feet AGL
overcast cloud deck at 10000 feet AGL
Weather: HZ  (haze)

METAR text: RPLC 152100Z 25002KT 5000 -SHRA SCT020 OVC100 25/24 Q1006 RMK A2971
Conditions at: RPLC (ANGELES/PAMPANGA, PH) observed 2100 UTC 15 July 2019
Temperature: 25.0°C (77°F)
Dewpoint: 24.0°C (75°F) [RH = 94%]
Pressure (altimeter): 29.70 inches Hg (1006.0 mb)
Winds: from the WSW (250 degrees) at 2 MPH (2 knots; 1.0 m/s)
Visibility: 3 miles ( 5 km)
Ceiling: 10000 feet AGL
Clouds: scattered clouds at 2000 feet AGL
overcast cloud deck at 10000 feet AGL
Weather: -SHRA  (light rain showers)

METAR text: RPLC 152000Z 18002KT 5000 -SHRA SCT020 OVC100 25/24 Q1005 RMK A2968
Conditions at: RPLC (ANGELES/PAMPANGA, PH) observed 2000 UTC 15 July 2019
Temperature: 25.0°C (77°F)
Dewpoint: 24.0°C (75°F) [RH = 94%]
Pressure (altimeter): 29.68 inches Hg (1005.0 mb)
Winds: from the S (180 degrees) at 2 MPH (2 knots; 1.0 m/s)
Visibility: 3 miles ( 5 km)
Ceiling: 10000 feet AGL
Clouds: scattered clouds at 2000 feet AGL
overcast cloud deck at 10000 feet AGL
Weather: -SHRA  (light rain showers)

METAR text: RPLC 151900Z 02002KT 6000 SCT020 BKN100 25/24 Q1005 NOSIG RMK A2968
Conditions at: RPLC (ANGELES/PAMPANGA, PH) observed 1900 UTC 15 July 2019
Temperature: 25.0°C (77°F)
Dewpoint: 24.0°C (75°F) [RH = 94%]
Pressure (altimeter): 29.68 inches Hg (1005.0 mb)
Winds: from the NNE (20 degrees) at 2 MPH (2 knots; 1.0 m/s)
Visibility: 4 miles ( 6 km)
Ceiling: 10000 feet AGL
Clouds: scattered clouds at 2000 feet AGL
broken clouds at 10000 feet AGL
Weather: no significant weather observed at this time

METAR text: RPLC 151800Z 02002KT 6000 SCT020 OVC100 25/24 Q1006 NOSIG RMK A2971
Conditions at: RPLC (ANGELES/PAMPANGA, PH) observed 1800 UTC 15 July 2019
Temperature: 25.0°C (77°F)
Dewpoint: 24.0°C (75°F) [RH = 94%]
Pressure (altimeter): 29.70 inches Hg (1006.0 mb)
Winds: from the NNE (20 degrees) at 2 MPH (2 knots; 1.0 m/s)
Visibility: 4 miles ( 6 km)
Ceiling: 10000 feet AGL
Clouds: scattered clouds at 2000 feet AGL
overcast cloud deck at 10000 feet AGL
Weather: no significant weather observed at this time

METAR text: RPLC 151700Z 02004KT 6000 SCT020 BKN100 25/24 Q1006 NOSIG RMK A2971
Conditions at: RPLC (ANGELES/PAMPANGA, PH) observed 1700 UTC 15 July 2019
Temperature: 25.0°C (77°F)
Dewpoint: 24.0°C (75°F) [RH = 94%]
Pressure (altimeter): 29.70 inches Hg (1006.0 mb)
Winds: from the NNE (20 degrees) at 5 MPH (4 knots; 2.1 m/s)
Visibility: 4 miles ( 6 km)
Ceiling: 10000 feet AGL
Clouds: scattered clouds at 2000 feet AGL
broken clouds at 10000 feet AGL
Weather: no significant weather observed at this time

METAR text: RPLC 151600Z 25002KT 7000 FEW020 BKN100 26/24 Q1007 NOSIG RMK A2974
Conditions at: RPLC (ANGELES/PAMPANGA, PH) observed 1600 UTC 15 July 2019
Temperature: 26.0°C (79°F)
Dewpoint: 24.0°C (75°F) [RH = 89%]
Pressure (altimeter): 29.73 inches Hg (1007.0 mb)
Winds: from the WSW (250 degrees) at 2 MPH (2 knots; 1.0 m/s)
Visibility: 4 miles ( 7 km)
Ceiling: 10000 feet AGL
Clouds: few clouds at 2000 feet AGL
broken clouds at 10000 feet AGL
Weather: no significant weather observed at this time

METAR text: RPLC 151500Z 28002KT 7000 SCT020 BKN100 26/24 Q1007 NOSIG RMK A2974
Conditions at: RPLC (ANGELES/PAMPANGA, PH) observed 1500 UTC 15 July 2019
Temperature: 26.0°C (79°F)
Dewpoint: 24.0°C (75°F) [RH = 89%]
Pressure (altimeter): 29.73 inches Hg (1007.0 mb)
Winds: from the W (280 degrees) at 2 MPH (2 knots; 1.0 m/s)
Visibility: 4 miles ( 7 km)
Ceiling: 10000 feet AGL
Clouds: scattered clouds at 2000 feet AGL
broken clouds at 10000 feet AGL
Weather: no significant weather observed at this time

METAR text: RPLC 151400Z 34004KT 7000 SCT020 OVC100 27/25 Q1007 NOSIG RMK A2974
Conditions at: RPLC (ANGELES/PAMPANGA, PH) observed 1400 UTC 15 July 2019
Temperature: 27.0°C (81°F)
Dewpoint: 25.0°C (77°F) [RH = 89%]
Pressure (altimeter): 29.73 inches Hg (1007.0 mb)
Winds: from the NNW (340 degrees) at 5 MPH (4 knots; 2.1 m/s)
Visibility: 4 miles ( 7 km)
Ceiling: 10000 feet AGL
Clouds: scattered clouds at 2000 feet AGL
overcast cloud deck at 10000 feet AGL
Weather: no significant weather observed at this time

METAR text: RPLC 151300Z 20002KT 4000 SCT020 OVC100 27/25 Q1007 NOSIG RMK A2974
Conditions at: RPLC (ANGELES/PAMPANGA, PH) observed 1300 UTC 15 July 2019
Temperature: 27.0°C (81°F)
Dewpoint: 25.0°C (77°F) [RH = 89%]
Pressure (altimeter): 29.73 inches Hg (1007.0 mb)
Winds: from the SSW (200 degrees) at 2 MPH (2 knots; 1.0 m/s)
Visibility: 2.49 miles (4.01 km)
Ceiling: 10000 feet AGL
Clouds: scattered clouds at 2000 feet AGL
overcast cloud deck at 10000 feet AGL
Weather: no significant weather observed at this time

Forecast for: RPLC (ANGELES/PAMPANGA, PH)
Text: TAF RPLC 162300Z 1700/1806 22006KT 8000 -RA SCT020 BKN100 TX27/1706Z TN24/1722Z
Forecast period: 0000 UTC 17 July 2019 to 0600 UTC 18 July 2019
Forecast type: FROM: standard forecast or significant change
Winds: from the SW (220 degrees) at 7 MPH (6 knots; 3.1 m/s)
Visibility: 5 miles (8 km)
Ceiling: 10000 feet AGL
Clouds: scattered clouds at 2000 feet AGL
broken clouds at 10000 feet AGL
Weather: -RA  (light rain)
Text: TEMPO 1700/1706 25010KT 4000 RA SCT020 OVC100
Forecast period: 0000 to 0600 UTC 17 July 2019
Forecast type: TEMPORARY: The following changes expected for less than half the time period
Winds: from the WSW (250 degrees) at 12 MPH (10 knots; 5.1 m/s)
Visibility: 2.49 miles (4.01 km)
Ceiling: 10000 feet AGL
Clouds: scattered clouds at 2000 feet AGL
overcast cloud deck at 10000 feet AGL
Weather: RA  (moderate rain)